Time;durP1;ratioP1;P1;durP2;ratioP2;P2;SDS_P1;SDS_P2;PMS_P1;PMS_P2;Temp;Humidity;BMP_temperature;BMP_pressure;BME280_temperature;BME280_humidity;BME280_pressure;Samples;Min_cycle;Max_cycle;Signal;HPM_P1;HPM_P2
2024/01/04 00:11:04;;;;;;;7.77;4.03;;;;;;;10.94;100.00;98495.66;31493640;28;20139;-82
2024/01/04 00:26:06;;;;;;;13.20;5.07;;;;;;;10.97;100.00;98494.00;31513539;28;20447;-81
2024/01/04 00:41:08;;;;;;;14.87;5.87;;;;;;;10.54;100.00;98483.16;31502387;28;20059;-81
2024/01/04 00:56:10;;;;;;;14.00;5.97;;;;;;;10.91;100.00;98512.88;31499927;28;20052;-82
2024/01/04 01:11:12;;;;;;;14.43;6.47;;;;;;;10.74;100.00;98509.03;31491363;28;20080;-82
2024/01/04 02:47:34;;;;;;;17.87;8.30;;;;;;;9.33;100.00;98462.41;31476335;28;20420;-80
2024/01/04 03:02:37;;;;;;;18.67;8.67;;;;;;;9.16;100.00;98459.22;31476511;28;20044;-81
2024/01/04 03:17:39;;;;;;;17.73;8.30;;;;;;;9.33;100.00;98490.25;31466852;28;20037;-83
2024/01/04 03:32:41;;;;;;;22.70;8.20;;;;;;;10.52;100.00;98526.25;31480421;28;20036;-81
2024/01/04 03:47:43;;;;;;;16.27;8.10;;;;;;;9.38;100.00;98530.28;31482911;28;20076;-82
2024/01/04 04:02:45;;;;;;;18.03;7.27;;;;;;;10.27;100.00;98532.03;31484879;28;20576;-82
2024/01/04 04:17:48;;;;;;;13.40;6.17;;;;;;;10.27;100.00;98586.28;31496003;28;20087;-81
2024/01/04 04:32:50;;;;;;;16.07;7.50;;;;;;;8.85;100.00;98548.56;31498560;28;20045;-82
2024/01/04 04:47:52;;;;;;;17.43;9.03;;;;;;;8.90;100.00;98564.22;31477333;28;20056;-84
2024/01/04 05:03:06;;;;;;;16.10;8.67;;;;;;;8.81;100.00;98612.88;31525234;28;20095;-84
2024/01/04 05:18:09;;;;;;;16.40;7.00;;;;;;;8.97;100.00;98639.75;31511241;28;20057;-83
2024/01/04 05:33:11;;;;;;;13.77;7.47;;;;;;;9.97;100.00;98652.19;31519006;28;20476;-83
2024/01/04 05:48:13;;;;;;;21.80;9.13;;;;;;;9.79;100.00;98666.44;31513466;28;20117;-83
2024/01/04 06:03:17;;;;;;;18.27;7.50;;;;;;;8.62;100.00;98681.59;31453602;28;20052;-83
2024/01/04 06:18:26;;;;;;;18.10;9.70;;;;;;;8.84;100.00;98682.34;31506427;28;20060;-82
2024/01/04 06:33:29;;;;;;;13.40;7.03;;;;;;;9.35;100.00;98709.16;31509807;28;20094;-82
2024/01/04 06:48:31;;;;;;;15.70;6.83;;;;;;;9.06;100.00;98721.00;31510829;28;20136;-84
2024/01/04 07:03:33;;;;;;;18.73;8.77;;;;;;;9.66;100.00;98728.13;31519883;28;20048;-83
2024/01/04 07:18:36;;;;;;;14.33;7.30;;;;;;;10.12;100.00;98753.47;31530299;28;20140;-83
2024/01/04 07:33:38;;;;;;;14.10;7.00;;;;;;;9.42;100.00;98790.16;31414657;28;20559;-82
2024/01/04 07:48:41;;;;;;;19.40;8.67;;;;;;;9.39;100.00;98788.31;31516452;28;20067;-81
2024/01/04 08:03:43;;;;;;;17.77;8.37;;;;;;;9.79;100.00;98808.13;31519939;28;20058;-84
2024/01/04 08:18:46;;;;;;;13.60;7.30;;;;;;;9.75;100.00;98807.50;31518721;28;20049;-83
2024/01/04 08:33:48;;;;;;;11.37;6.60;;;;;;;9.75;100.00;98796.66;31520142;28;20052;-84
2024/01/04 08:48:50;;;;;;;14.67;7.33;;;;;;;10.94;100.00;98832.34;31527256;28;20539;-85
2024/01/04 09:03:53;;;;;;;13.93;7.17;;;;;;;11.09;100.00;98840.66;31606771;28;20124;-88
2024/01/04 09:18:55;;;;;;;14.90;7.17;;;;;;;10.17;100.00;98826.06;31650600;28;20044;-86
2024/01/04 09:33:58;;;;;;;16.53;7.60;;;;;;;11.40;100.00;98851.38;31523253;28;20385;-87
2024/01/04 09:49:01;;;;;;;15.97;8.20;;;;;;;10.17;100.00;98831.50;31503181;28;20052;-84
2024/01/04 10:04:14;;;;;;;13.67;7.47;;;;;;;10.56;100.00;98781.94;31495275;28;20048;-80
2024/01/04 10:19:17;;;;;;;17.43;7.83;;;;;;;11.97;100.00;98778.19;31491695;28;20044;-84
2024/01/04 10:34:19;;;;;;;13.93;6.73;;;;;;;13.74;100.00;98758.41;31492886;28;20052;-81
2024/01/04 10:49:23;;;;;;;13.70;6.13;;;;;;;14.59;100.00;98758.44;31492360;28;20052;-84
2024/01/04 11:04:27;;;;;;;18.67;6.13;;;;;;;14.42;100.00;98771.84;31451263;28;20052;-86
2024/01/04 11:19:47;;;;;;;14.70;5.07;;;;;;;13.37;100.00;98765.50;31471538;28;20462;-86
2024/01/04 11:34:50;;;;;;;7.27;4.20;;;;;;;13.10;100.00;98753.59;31491246;28;20052;-85
2024/01/04 11:49:59;;;;;;;8.20;4.50;;;;;;;14.15;100.00;98751.13;31511300;28;20060;-84
2024/01/04 12:05:18;;;;;;;10.50;5.97;;;;;;;13.13;100.00;98751.91;31438573;28;20572;-84
2024/01/04 12:20:23;;;;;;;9.70;5.70;;;;;;;12.45;100.00;98752.56;31535320;28;20064;-85
2024/01/04 12:35:29;;;;;;;11.87;6.77;;;;;;;11.78;100.00;98745.63;31497178;28;20098;-80
2024/01/04 12:50:31;;;;;;;12.03;7.23;;;;;;;11.90;100.00;98758.28;31497309;28;20060;-80
2024/01/04 13:05:35;;;;;;;10.73;6.40;;;;;;;12.69;100.00;98770.88;31504349;28;20109;-81
2024/01/04 13:20:38;;;;;;;12.83;6.80;;;;;;;12.13;100.00;98783.25;31492716;28;20412;-80
2024/01/04 13:35:45;;;;;;;13.33;5.57;;;;;;;12.05;100.00;98774.66;31478969;28;20404;-79
2024/01/04 13:50:47;;;;;;;15.00;6.70;;;;;;;11.84;100.00;98765.53;31433256;28;1357596;-78
2024/01/04 14:05:51;;;;;;;10.83;6.30;;;;;;;11.80;100.00;98759.53;31479671;28;20415;-76
2024/01/04 14:20:56;;;;;;;;;;;;;;;11.73;100.00;98754.38;31488807;28;20522;-80
2024/01/04 14:35:58;;;;;;;10.27;5.60;;;;;;;11.37;100.00;98766.09;31484373;28;19920;-80
2024/01/04 14:51:00;;;;;;;11.23;5.83;;;;;;;11.51;100.00;98770.16;31480361;28;20390;-81
2024/01/04 15:06:04;;;;;;;12.47;5.57;;;;;;;11.25;100.00;98767.78;31481928;28;20055;-82
2024/01/04 15:21:06;;;;;;;19.97;9.73;;;;;;;11.05;100.00;98761.31;31484685;28;20088;-80
2024/01/04 15:36:08;;;;;;;10.53;5.20;;;;;;;11.40;100.00;98761.69;31477402;28;20052;-85
2024/01/04 15:51:11;;;;;;;12.20;5.63;;;;;;;11.06;100.00;98763.56;31490255;28;20049;-85
2024/01/04 16:06:13;;;;;;;10.83;6.03;;;;;;;12.07;100.00;98782.38;31519394;28;20110;-83
2024/01/04 16:21:15;;;;;;;22.07;12.53;;;;;;;11.78;100.00;98793.81;31531892;28;20080;-85
2024/01/04 16:36:25;;;;;;;31.87;14.97;;;;;;;10.48;100.00;98763.66;31529574;28;20139;-83
2024/01/04 16:51:29;;;;;;;16.70;8.60;;;;;;;10.21;100.00;98750.78;31557825;28;20052;-83
2024/01/04 17:06:31;;;;;;;14.53;8.60;;;;;;;10.27;100.00;98754.41;31516076;28;20532;-82
2024/01/04 17:21:33;;;;;;;24.23;12.67;;;;;;;10.06;100.00;98753.28;31485845;28;20045;-83
2024/01/04 17:36:36;;;;;;;29.07;14.47;;;;;;;10.01;100.00;98753.09;31491207;28;20048;-86
2024/01/04 17:51:45;;;;;;;22.10;9.93;;;;;;;10.06;100.00;98755.22;31511890;28;20135;-82
2024/01/04 18:06:47;;;;;;;19.67;9.30;;;;;;;10.22;100.00;98758.47;31512280;28;20102;-85
2024/01/04 18:22:02;;;;;;;;;;;;;;;;;;;;;
2024/01/04 18:37:06;;;;;;;17.97;7.07;;;;;;;11.67;100.00;98783.38;31475172;28;20059;-86
2024/01/04 18:52:09;;;;;;;13.50;6.70;;;;;;;10.89;100.00;98820.09;31496786;28;20147;-87
2024/01/04 19:07:11;;;;;;;15.60;7.83;;;;;;;10.58;100.00;98800.47;31493165;28;20063;-83
2024/01/04 19:22:14;;;;;;;25.07;12.63;;;;;;;11.77;100.00;98822.97;31541598;28;20056;-87
2024/01/04 19:37:17;;;;;;;14.37;8.00;;;;;;;11.50;100.00;98823.75;31507371;28;20053;-81
2024/01/04 19:52:23;;;;;;;28.90;16.27;;;;;;;11.33;100.00;98829.97;31563388;28;20053;-84
2024/01/04 20:07:26;;;;;;;13.27;7.07;;;;;;;11.07;100.00;98822.09;31526240;28;20036;-84
2024/01/04 20:22:28;;;;;;;26.20;13.37;;;;;;;10.94;100.00;98807.91;31502463;28;20052;-84
2024/01/04 20:37:31;;;;;;;19.23;9.13;;;;;;;11.08;100.00;98818.19;31509626;28;20098;-77
2024/01/04 20:52:34;;;;;;;19.63;10.77;;;;;;;10.83;100.00;98805.63;31495437;28;20060;-80
2024/01/04 21:07:37;;;;;;;22.40;10.93;;;;;;;9.93;100.00;98774.31;31531753;28;20131;-81
2024/01/04 21:22:40;;;;;;;13.10;8.00;;;;;;;9.75;100.00;98774.97;31485507;28;20105;-82
2024/01/04 21:37:42;;;;;;;12.80;5.47;;;;;;;10.29;100.00;98743.88;31480299;28;20098;-81
2024/01/04 21:52:44;;;;;;;17.90;6.40;;;;;;;10.62;100.00;98778.63;31489264;28;20147;-80
2024/01/04 22:07:46;;;;;;;13.60;5.60;;;;;;;10.58;100.00;98763.25;31492010;28;20488;-81
2024/01/04 22:22:50;;;;;;;19.00;5.43;;;;;;;10.61;100.00;98749.97;31475925;28;20488;-80
2024/01/04 22:38:01;;;;;;;17.33;5.63;;;;;;;11.07;100.00;98737.91;31491459;28;20412;-82
2024/01/04 22:53:03;;;;;;;17.50;6.23;;;;;;;9.92;100.00;98691.47;31482554;28;20512;-81
2024/01/04 23:08:05;;;;;;;30.30;8.30;;;;;;;11.01;100.00;98693.56;31486964;28;20078;-80
2024/01/04 23:23:07;;;;;;;28.63;7.97;;;;;;;10.84;100.00;98735.81;31467223;28;20110;-80
2024/01/04 23:38:09;;;;;;;15.40;6.00;;;;;;;10.07;100.00;98729.63;31508516;28;20045;-81
2024/01/04 23:53:11;;;;;;;23.43;7.17;;;;;;;10.00;100.00;98727.19;31507057;28;20506;-81
